Terminal Aerodrome Forecast
Issued by NWS

Home | Current Version | Previous Version | Text Only | Print | Product List | Glossary On
Versions: 1 2 3 4 5 6 7 8 9 10 11 12
904
FTUS46 KSTO 270534
TAFRBL
TAF
KRBL 270534Z 2706/2806 16014KT P6SM SKC
     FM271300 16010KT P6SM BKN025
     FM272000 17014G23KT P6SM BKN100
     FM280300 17007KT P6SM BKN050 PROB30 2803/2806 P6SM -SHRA
      OVC050=

USA.gov is the U.S. government's official web portal to all federal, state and local government web resources and services.